sensor_id;sensor_type;location;lat;lon;timestamp;P1;durP1;ratioP1;P2;durP2;ratioP2
55368;SDS011;41247;49.736;8.752;2023-03-11T00:00:56;2.75;;;1.67;;
55368;SDS011;41247;49.736;8.752;2023-03-11T00:04:36;2.85;;;1.98;;
55368;SDS011;41247;49.736;8.752;2023-03-11T00:08:19;2.83;;;1.75;;
55368;SDS011;41247;49.736;8.752;2023-03-11T00:12:02;3.50;;;1.70;;
55368;SDS011;41247;49.736;8.752;2023-03-11T00:15:45;2.47;;;1.50;;
55368;SDS011;41247;49.736;8.752;2023-03-11T00:19:28;1.52;;;1.17;;
55368;SDS011;41247;49.736;8.752;2023-03-11T00:23:10;4.72;;;1.13;;
55368;SDS011;41247;49.736;8.752;2023-03-11T00:26:52;2.55;;;0.90;;
55368;SDS011;41247;49.736;8.752;2023-03-11T00:30:33;4.15;;;0.85;;
55368;SDS011;41247;49.736;8.752;2023-03-11T00:34:13;2.58;;;1.20;;
55368;SDS011;41247;49.736;8.752;2023-03-11T00:37:58;2.05;;;0.68;;
55368;SDS011;41247;49.736;8.752;2023-03-11T00:41:42;3.35;;;0.70;;
55368;SDS011;41247;49.736;8.752;2023-03-11T00:45:23;1.63;;;0.70;;
55368;SDS011;41247;49.736;8.752;2023-03-11T00:49:04;2.30;;;0.77;;
55368;SDS011;41247;49.736;8.752;2023-03-11T00:52:45;5.35;;;0.90;;
55368;SDS011;41247;49.736;8.752;2023-03-11T00:56:27;3.30;;;1.00;;
55368;SDS011;41247;49.736;8.752;2023-03-11T01:00:11;3.17;;;0.90;;
55368;SDS011;41247;49.736;8.752;2023-03-11T01:03:56;4.32;;;0.90;;
55368;SDS011;41247;49.736;8.752;2023-03-11T01:07:37;4.72;;;0.77;;
55368;SDS011;41247;49.736;8.752;2023-03-11T01:11:18;6.95;;;0.73;;
55368;SDS011;41247;49.736;8.752;2023-03-11T01:14:58;1.77;;;0.60;;
55368;SDS011;41247;49.736;8.752;2023-03-11T01:18:39;6.28;;;0.70;;
55368;SDS011;41247;49.736;8.752;2023-03-11T01:22:20;3.42;;;0.70;;
55368;SDS011;41247;49.736;8.752;2023-03-11T01:26:00;1.67;;;0.60;;
55368;SDS011;41247;49.736;8.752;2023-03-11T01:29:41;3.17;;;0.70;;
55368;SDS011;41247;49.736;8.752;2023-03-11T01:33:21;5.78;;;0.80;;
55368;SDS011;41247;49.736;8.752;2023-03-11T01:37:02;4.68;;;0.70;;
55368;SDS011;41247;49.736;8.752;2023-03-11T01:40:44;5.13;;;0.90;;
55368;SDS011;41247;49.736;8.752;2023-03-11T01:44:28;3.90;;;0.95;;
55368;SDS011;41247;49.736;8.752;2023-03-11T01:48:08;3.03;;;0.82;;
55368;SDS011;41247;49.736;8.752;2023-03-11T01:51:51;8.27;;;1.25;;
55368;SDS011;41247;49.736;8.752;2023-03-11T01:55:36;4.97;;;0.60;;
55368;SDS011;41247;49.736;8.752;2023-03-11T01:59:18;4.30;;;0.95;;
55368;SDS011;41247;49.736;8.752;2023-03-11T02:03:13;5.63;;;0.98;;
55368;SDS011;41247;49.736;8.752;2023-03-11T02:07:06;4.22;;;1.13;;
55368;SDS011;41247;49.736;8.752;2023-03-11T02:10:47;5.75;;;0.80;;
55368;SDS011;41247;49.736;8.752;2023-03-11T02:14:31;5.60;;;0.75;;
55368;SDS011;41247;49.736;8.752;2023-03-11T02:18:14;6.30;;;1.13;;
55368;SDS011;41247;49.736;8.752;2023-03-11T02:21:56;6.63;;;0.93;;
55368;SDS011;41247;49.736;8.752;2023-03-11T02:25:50;5.28;;;1.23;;
55368;SDS011;41247;49.736;8.752;2023-03-11T02:29:46;5.65;;;1.20;;
55368;SDS011;41247;49.736;8.752;2023-03-11T02:33:28;8.43;;;1.40;;
55368;SDS011;41247;49.736;8.752;2023-03-11T02:37:12;7.53;;;1.35;;
55368;SDS011;41247;49.736;8.752;2023-03-11T02:40:55;5.88;;;1.25;;
55368;SDS011;41247;49.736;8.752;2023-03-11T02:44:40;4.10;;;1.20;;
55368;SDS011;41247;49.736;8.752;2023-03-11T02:48:23;6.53;;;1.50;;
55368;SDS011;41247;49.736;8.752;2023-03-11T02:52:05;4.72;;;1.10;;
55368;SDS011;41247;49.736;8.752;2023-03-11T02:55:45;6.20;;;1.42;;
55368;SDS011;41247;49.736;8.752;2023-03-11T02:59:26;6.88;;;1.55;;
55368;SDS011;41247;49.736;8.752;2023-03-11T03:03:07;6.07;;;1.05;;
55368;SDS011;41247;49.736;8.752;2023-03-11T03:06:47;5.75;;;1.30;;
55368;SDS011;41247;49.736;8.752;2023-03-11T03:10:28;5.70;;;1.30;;
55368;SDS011;41247;49.736;8.752;2023-03-11T03:14:09;4.15;;;1.00;;
55368;SDS011;41247;49.736;8.752;2023-03-11T03:17:50;4.95;;;1.42;;
55368;SDS011;41247;49.736;8.752;2023-03-11T03:21:30;8.77;;;1.73;;
55368;SDS011;41247;49.736;8.752;2023-03-11T03:25:11;8.80;;;1.20;;
55368;SDS011;41247;49.736;8.752;2023-03-11T03:28:51;4.13;;;1.15;;
55368;SDS011;41247;49.736;8.752;2023-03-11T03:32:32;8.77;;;1.10;;
55368;SDS011;41247;49.736;8.752;2023-03-11T03:36:13;6.65;;;1.33;;
55368;SDS011;41247;49.736;8.752;2023-03-11T03:39:54;7.72;;;1.00;;
55368;SDS011;41247;49.736;8.752;2023-03-11T03:43:36;14.82;;;1.92;;
55368;SDS011;41247;49.736;8.752;2023-03-11T03:47:17;12.13;;;1.92;;
55368;SDS011;41247;49.736;8.752;2023-03-11T03:51:02;6.57;;;1.33;;
55368;SDS011;41247;49.736;8.752;2023-03-11T03:54:45;7.03;;;1.17;;
55368;SDS011;41247;49.736;8.752;2023-03-11T03:58:25;9.98;;;1.95;;
55368;SDS011;41247;49.736;8.752;2023-03-11T04:02:06;8.90;;;1.20;;
55368;SDS011;41247;49.736;8.752;2023-03-11T04:05:47;7.70;;;1.33;;
55368;SDS011;41247;49.736;8.752;2023-03-11T04:09:27;11.93;;;1.90;;
55368;SDS011;41247;49.736;8.752;2023-03-11T04:13:08;8.30;;;1.40;;
55368;SDS011;41247;49.736;8.752;2023-03-11T04:16:49;17.98;;;2.15;;
55368;SDS011;41247;49.736;8.752;2023-03-11T04:20:29;4.60;;;1.13;;
55368;SDS011;41247;49.736;8.752;2023-03-11T04:24:10;7.90;;;1.50;;
55368;SDS011;41247;49.736;8.752;2023-03-11T04:27:51;10.75;;;1.50;;
55368;SDS011;41247;49.736;8.752;2023-03-11T04:31:31;9.43;;;1.60;;
55368;SDS011;41247;49.736;8.752;2023-03-11T04:35:12;7.15;;;1.52;;
55368;SDS011;41247;49.736;8.752;2023-03-11T04:38:54;7.35;;;1.52;;
55368;SDS011;41247;49.736;8.752;2023-03-11T04:42:36;6.05;;;1.35;;
55368;SDS011;41247;49.736;8.752;2023-03-11T04:46:17;7.10;;;1.30;;
55368;SDS011;41247;49.736;8.752;2023-03-11T04:49:57;9.65;;;1.98;;
55368;SDS011;41247;49.736;8.752;2023-03-11T04:53:38;12.43;;;1.73;;
55368;SDS011;41247;49.736;8.752;2023-03-11T04:57:18;13.48;;;1.50;;
55368;SDS011;41247;49.736;8.752;2023-03-11T05:00:59;6.57;;;1.40;;
55368;SDS011;41247;49.736;8.752;2023-03-11T05:04:40;6.30;;;1.40;;
55368;SDS011;41247;49.736;8.752;2023-03-11T05:08:21;4.75;;;1.30;;
55368;SDS011;41247;49.736;8.752;2023-03-11T05:12:03;11.27;;;1.98;;
55368;SDS011;41247;49.736;8.752;2023-03-11T05:15:45;14.82;;;2.08;;
55368;SDS011;41247;49.736;8.752;2023-03-11T05:19:26;7.85;;;1.80;;
55368;SDS011;41247;49.736;8.752;2023-03-11T05:23:06;10.63;;;2.00;;
55368;SDS011;41247;49.736;8.752;2023-03-11T05:26:47;12.40;;;1.58;;
55368;SDS011;41247;49.736;8.752;2023-03-11T05:30:28;17.00;;;2.35;;
55368;SDS011;41247;49.736;8.752;2023-03-11T05:34:09;12.68;;;1.85;;
55368;SDS011;41247;49.736;8.752;2023-03-11T05:37:49;12.02;;;2.00;;
55368;SDS011;41247;49.736;8.752;2023-03-11T05:41:31;12.50;;;2.10;;
55368;SDS011;41247;49.736;8.752;2023-03-11T05:45:11;12.02;;;1.95;;
55368;SDS011;41247;49.736;8.752;2023-03-11T05:48:52;8.23;;;1.77;;
55368;SDS011;41247;49.736;8.752;2023-03-11T05:52:33;11.90;;;2.40;;
55368;SDS011;41247;49.736;8.752;2023-03-11T05:56:14;8.65;;;2.35;;
55368;SDS011;41247;49.736;8.752;2023-03-11T05:59:59;12.02;;;1.90;;
55368;SDS011;41247;49.736;8.752;2023-03-11T06:03:39;11.02;;;1.88;;
55368;SDS011;41247;49.736;8.752;2023-03-11T06:07:21;11.07;;;2.08;;
55368;SDS011;41247;49.736;8.752;2023-03-11T06:11:02;13.50;;;2.22;;
55368;SDS011;41247;49.736;8.752;2023-03-11T06:14:46;7.82;;;1.70;;
55368;SDS011;41247;49.736;8.752;2023-03-11T06:18:26;9.52;;;1.80;;
55368;SDS011;41247;49.736;8.752;2023-03-11T06:22:07;11.18;;;2.45;;
55368;SDS011;41247;49.736;8.752;2023-03-11T06:25:57;10.50;;;2.13;;
55368;SDS011;41247;49.736;8.752;2023-03-11T06:29:43;13.50;;;2.08;;
55368;SDS011;41247;49.736;8.752;2023-03-11T06:33:24;12.13;;;2.17;;
55368;SDS011;41247;49.736;8.752;2023-03-11T06:37:04;12.65;;;2.10;;
55368;SDS011;41247;49.736;8.752;2023-03-11T06:40:45;12.15;;;2.40;;
55368;SDS011;41247;49.736;8.752;2023-03-11T06:44:25;12.18;;;2.72;;
55368;SDS011;41247;49.736;8.752;2023-03-11T06:48:06;8.18;;;2.10;;
55368;SDS011;41247;49.736;8.752;2023-03-11T06:51:47;16.45;;;3.30;;
55368;SDS011;41247;49.736;8.752;2023-03-11T06:55:27;11.77;;;2.30;;
55368;SDS011;41247;49.736;8.752;2023-03-11T06:59:08;24.52;;;4.05;;
55368;SDS011;41247;49.736;8.752;2023-03-11T07:02:49;21.63;;;5.55;;
55368;SDS011;41247;49.736;8.752;2023-03-11T07:06:29;20.33;;;5.63;;
55368;SDS011;41247;49.736;8.752;2023-03-11T07:10:10;12.23;;;2.80;;
55368;SDS011;41247;49.736;8.752;2023-03-11T07:13:52;15.88;;;2.97;;
55368;SDS011;41247;49.736;8.752;2023-03-11T07:17:33;11.90;;;2.92;;
55368;SDS011;41247;49.736;8.752;2023-03-11T07:21:14;16.83;;;4.53;;
55368;SDS011;41247;49.736;8.752;2023-03-11T07:28:38;14.43;;;2.17;;
55368;SDS011;41247;49.736;8.752;2023-03-11T07:32:19;15.95;;;2.28;;
55368;SDS011;41247;49.736;8.752;2023-03-11T07:36:03;10.38;;;1.65;;
55368;SDS011;41247;49.736;8.752;2023-03-11T07:39:56;17.38;;;2.20;;
55368;SDS011;41247;49.736;8.752;2023-03-11T07:43:37;16.38;;;2.50;;
55368;SDS011;41247;49.736;8.752;2023-03-11T07:47:19;13.05;;;2.05;;
55368;SDS011;41247;49.736;8.752;2023-03-11T07:51:03;11.25;;;2.03;;
55368;SDS011;41247;49.736;8.752;2023-03-11T07:54:46;9.95;;;1.88;;
55368;SDS011;41247;49.736;8.752;2023-03-11T07:58:27;10.90;;;2.13;;
55368;SDS011;41247;49.736;8.752;2023-03-11T08:02:08;12.88;;;2.08;;
55368;SDS011;41247;49.736;8.752;2023-03-11T08:05:49;12.55;;;2.33;;
55368;SDS011;41247;49.736;8.752;2023-03-11T08:09:30;16.42;;;3.25;;
55368;SDS011;41247;49.736;8.752;2023-03-11T08:13:10;16.10;;;4.97;;
55368;SDS011;41247;49.736;8.752;2023-03-11T08:16:51;13.35;;;2.15;;
55368;SDS011;41247;49.736;8.752;2023-03-11T08:20:32;15.00;;;2.13;;
55368;SDS011;41247;49.736;8.752;2023-03-11T08:24:12;14.43;;;2.50;;
55368;SDS011;41247;49.736;8.752;2023-03-11T08:27:53;13.70;;;2.30;;
55368;SDS011;41247;49.736;8.752;2023-03-11T08:31:34;9.20;;;2.15;;
55368;SDS011;41247;49.736;8.752;2023-03-11T08:35:15;5.65;;;1.48;;
55368;SDS011;41247;49.736;8.752;2023-03-11T08:38:56;10.25;;;1.90;;
55368;SDS011;41247;49.736;8.752;2023-03-11T08:42:38;18.70;;;1.88;;
55368;SDS011;41247;49.736;8.752;2023-03-11T08:46:28;9.40;;;1.70;;
55368;SDS011;41247;49.736;8.752;2023-03-11T08:50:13;10.40;;;1.92;;
55368;SDS011;41247;49.736;8.752;2023-03-11T08:53:56;8.85;;;2.25;;
55368;SDS011;41247;49.736;8.752;2023-03-11T08:57:37;16.98;;;2.45;;
55368;SDS011;41247;49.736;8.752;2023-03-11T09:01:18;7.70;;;1.70;;
55368;SDS011;41247;49.736;8.752;2023-03-11T09:04:58;8.30;;;2.00;;
55368;SDS011;41247;49.736;8.752;2023-03-11T09:08:40;8.70;;;2.13;;
55368;SDS011;41247;49.736;8.752;2023-03-11T09:12:21;8.80;;;2.28;;
55368;SDS011;41247;49.736;8.752;2023-03-11T09:16:01;10.07;;;1.83;;
55368;SDS011;41247;49.736;8.752;2023-03-11T09:19:42;10.80;;;1.60;;
55368;SDS011;41247;49.736;8.752;2023-03-11T09:23:23;10.65;;;1.90;;
55368;SDS011;41247;49.736;8.752;2023-03-11T09:27:04;12.90;;;1.63;;
55368;SDS011;41247;49.736;8.752;2023-03-11T09:30:44;7.38;;;2.67;;
55368;SDS011;41247;49.736;8.752;2023-03-11T09:34:25;13.82;;;2.58;;
55368;SDS011;41247;49.736;8.752;2023-03-11T09:38:06;9.10;;;1.40;;
55368;SDS011;41247;49.736;8.752;2023-03-11T09:41:53;6.28;;;1.33;;
55368;SDS011;41247;49.736;8.752;2023-03-11T09:50:25;8.18;;;1.60;;
55368;SDS011;41247;49.736;8.752;2023-03-11T09:54:22;8.52;;;1.50;;
55368;SDS011;41247;49.736;8.752;2023-03-11T09:58:07;12.70;;;1.38;;
55368;SDS011;41247;49.736;8.752;2023-03-11T10:01:52;5.57;;;1.58;;
55368;SDS011;41247;49.736;8.752;2023-03-11T10:05:32;6.20;;;1.10;;
55368;SDS011;41247;49.736;8.752;2023-03-11T10:13:17;13.52;;;3.10;;
55368;SDS011;41247;49.736;8.752;2023-03-11T10:28:57;8.05;;;1.00;;
55368;SDS011;41247;49.736;8.752;2023-03-11T10:32:48;8.02;;;1.70;;
55368;SDS011;41247;49.736;8.752;2023-03-11T10:36:53;9.48;;;1.20;;
55368;SDS011;41247;49.736;8.752;2023-03-11T10:40:46;4.45;;;1.17;;
55368;SDS011;41247;49.736;8.752;2023-03-11T10:48:19;7.43;;;1.00;;
55368;SDS011;41247;49.736;8.752;2023-03-11T10:52:01;4.63;;;1.10;;
55368;SDS011;41247;49.736;8.752;2023-03-11T10:55:53;7.22;;;1.35;;
55368;SDS011;41247;49.736;8.752;2023-03-11T10:59:46;7.30;;;1.25;;
55368;SDS011;41247;49.736;8.752;2023-03-11T11:03:30;6.35;;;1.40;;
55368;SDS011;41247;49.736;8.752;2023-03-11T11:07:46;6.50;;;1.35;;
55368;SDS011;41247;49.736;8.752;2023-03-11T11:11:20;8.57;;;3.40;;
55368;SDS011;41247;49.736;8.752;2023-03-11T11:15:03;7.38;;;2.03;;
55368;SDS011;41247;49.736;8.752;2023-03-11T11:18:46;4.68;;;1.40;;
55368;SDS011;41247;49.736;8.752;2023-03-11T11:22:29;6.07;;;1.20;;
55368;SDS011;41247;49.736;8.752;2023-03-11T11:26:20;2.88;;;1.30;;
55368;SDS011;41247;49.736;8.752;2023-03-11T11:33:50;7.90;;;1.27;;
55368;SDS011;41247;49.736;8.752;2023-03-11T11:37:35;8.77;;;0.90;;
55368;SDS011;41247;49.736;8.752;2023-03-11T11:41:20;9.63;;;1.40;;
55368;SDS011;41247;49.736;8.752;2023-03-11T11:45:17;6.40;;;1.13;;
55368;SDS011;41247;49.736;8.752;2023-03-11T11:49:26;4.45;;;1.20;;
55368;SDS011;41247;49.736;8.752;2023-03-11T11:53:24;6.13;;;2.25;;
55368;SDS011;41247;49.736;8.752;2023-03-11T11:57:18;9.43;;;1.40;;
55368;SDS011;41247;49.736;8.752;2023-03-11T12:01:45;5.95;;;1.60;;
55368;SDS011;41247;49.736;8.752;2023-03-11T12:05:27;7.68;;;1.23;;
55368;SDS011;41247;49.736;8.752;2023-03-11T12:20:41;10.70;;;2.28;;
55368;SDS011;41247;49.736;8.752;2023-03-11T12:32:39;5.13;;;1.35;;
55368;SDS011;41247;49.736;8.752;2023-03-11T12:36:29;4.85;;;1.52;;
55368;SDS011;41247;49.736;8.752;2023-03-11T12:44:25;6.25;;;2.13;;
55368;SDS011;41247;49.736;8.752;2023-03-11T12:48:30;8.77;;;1.38;;
55368;SDS011;41247;49.736;8.752;2023-03-11T12:52:25;7.65;;;1.52;;
55368;SDS011;41247;49.736;8.752;2023-03-11T12:56:54;8.05;;;1.77;;
55368;SDS011;41247;49.736;8.752;2023-03-11T13:00:26;7.57;;;1.25;;
55368;SDS011;41247;49.736;8.752;2023-03-11T13:04:16;9.32;;;1.60;;
55368;SDS011;41247;49.736;8.752;2023-03-11T13:08:12;7.70;;;1.67;;
55368;SDS011;41247;49.736;8.752;2023-03-11T13:11:54;8.80;;;1.70;;
55368;SDS011;41247;49.736;8.752;2023-03-11T13:15:35;4.85;;;1.20;;
55368;SDS011;41247;49.736;8.752;2023-03-11T13:23:19;8.50;;;2.10;;
55368;SDS011;41247;49.736;8.752;2023-03-11T13:27:19;8.43;;;2.00;;
55368;SDS011;41247;49.736;8.752;2023-03-11T13:31:24;5.30;;;1.40;;
55368;SDS011;41247;49.736;8.752;2023-03-11T13:35:34;6.05;;;0.80;;
55368;SDS011;41247;49.736;8.752;2023-03-11T13:39:52;5.35;;;1.33;;
55368;SDS011;41247;49.736;8.752;2023-03-11T13:43:50;5.68;;;1.20;;
55368;SDS011;41247;49.736;8.752;2023-03-11T13:51:19;9.50;;;1.92;;
55368;SDS011;41247;49.736;8.752;2023-03-11T13:55:18;4.97;;;1.02;;
55368;SDS011;41247;49.736;8.752;2023-03-11T13:59:16;5.60;;;1.33;;
55368;SDS011;41247;49.736;8.752;2023-03-11T14:03:10;3.72;;;1.40;;
55368;SDS011;41247;49.736;8.752;2023-03-11T14:06:52;3.78;;;1.25;;
55368;SDS011;41247;49.736;8.752;2023-03-11T14:10:32;5.70;;;1.30;;
55368;SDS011;41247;49.736;8.752;2023-03-11T14:14:18;6.35;;;1.50;;
55368;SDS011;41247;49.736;8.752;2023-03-11T14:18:27;8.73;;;2.10;;
55368;SDS011;41247;49.736;8.752;2023-03-11T14:22:13;4.15;;;1.33;;
55368;SDS011;41247;49.736;8.752;2023-03-11T14:25:58;5.07;;;1.30;;
55368;SDS011;41247;49.736;8.752;2023-03-11T14:29:42;4.82;;;1.30;;
55368;SDS011;41247;49.736;8.752;2023-03-11T14:33:24;14.88;;;3.97;;
55368;SDS011;41247;49.736;8.752;2023-03-11T14:37:24;4.88;;;1.52;;
55368;SDS011;41247;49.736;8.752;2023-03-11T14:41:15;7.55;;;1.50;;
55368;SDS011;41247;49.736;8.752;2023-03-11T14:48:49;8.33;;;1.70;;
55368;SDS011;41247;49.736;8.752;2023-03-11T14:52:40;7.85;;;1.60;;
55368;SDS011;41247;49.736;8.752;2023-03-11T14:56:28;4.80;;;1.50;;
55368;SDS011;41247;49.736;8.752;2023-03-11T15:00:15;6.20;;;1.40;;
55368;SDS011;41247;49.736;8.752;2023-03-11T15:07:51;7.25;;;1.70;;
55368;SDS011;41247;49.736;8.752;2023-03-11T15:11:43;5.70;;;1.42;;
55368;SDS011;41247;49.736;8.752;2023-03-11T15:15:29;5.40;;;1.20;;
55368;SDS011;41247;49.736;8.752;2023-03-11T15:19:32;4.68;;;1.42;;
55368;SDS011;41247;49.736;8.752;2023-03-11T15:23:18;4.07;;;1.10;;
55368;SDS011;41247;49.736;8.752;2023-03-11T15:27:02;5.53;;;1.23;;
55368;SDS011;41247;49.736;8.752;2023-03-11T15:30:46;6.35;;;1.63;;
55368;SDS011;41247;49.736;8.752;2023-03-11T15:34:28;4.20;;;1.20;;
55368;SDS011;41247;49.736;8.752;2023-03-11T15:38:17;5.18;;;1.40;;
55368;SDS011;41247;49.736;8.752;2023-03-11T15:45:47;6.30;;;1.90;;
55368;SDS011;41247;49.736;8.752;2023-03-11T15:49:28;5.93;;;1.50;;
55368;SDS011;41247;49.736;8.752;2023-03-11T15:53:09;7.55;;;1.63;;
55368;SDS011;41247;49.736;8.752;2023-03-11T15:56:49;6.90;;;1.30;;
55368;SDS011;41247;49.736;8.752;2023-03-11T16:00:30;4.80;;;1.45;;
55368;SDS011;41247;49.736;8.752;2023-03-11T16:04:12;5.85;;;1.50;;
55368;SDS011;41247;49.736;8.752;2023-03-11T16:07:56;6.25;;;1.23;;
55368;SDS011;41247;49.736;8.752;2023-03-11T16:11:36;5.70;;;1.92;;
55368;SDS011;41247;49.736;8.752;2023-03-11T16:19:04;6.93;;;1.08;;
55368;SDS011;41247;49.736;8.752;2023-03-11T16:22:45;3.65;;;0.98;;
55368;SDS011;41247;49.736;8.752;2023-03-11T16:26:28;7.32;;;1.20;;
55368;SDS011;41247;49.736;8.752;2023-03-11T16:30:09;4.55;;;1.58;;
55368;SDS011;41247;49.736;8.752;2023-03-11T16:33:51;7.43;;;1.15;;
55368;SDS011;41247;49.736;8.752;2023-03-11T16:37:32;5.32;;;1.33;;
55368;SDS011;41247;49.736;8.752;2023-03-11T16:41:13;7.32;;;1.20;;
55368;SDS011;41247;49.736;8.752;2023-03-11T16:44:55;4.93;;;1.75;;
55368;SDS011;41247;49.736;8.752;2023-03-11T16:48:35;6.35;;;1.30;;
55368;SDS011;41247;49.736;8.752;2023-03-11T16:52:16;4.22;;;1.27;;
55368;SDS011;41247;49.736;8.752;2023-03-11T16:55:57;5.47;;;1.35;;
55368;SDS011;41247;49.736;8.752;2023-03-11T16:59:37;8.10;;;1.40;;
55368;SDS011;41247;49.736;8.752;2023-03-11T17:03:18;4.18;;;1.20;;
55368;SDS011;41247;49.736;8.752;2023-03-11T17:06:59;6.45;;;1.50;;
55368;SDS011;41247;49.736;8.752;2023-03-11T17:10:40;6.05;;;1.35;;
55368;SDS011;41247;49.736;8.752;2023-03-11T17:14:23;5.30;;;1.40;;
55368;SDS011;41247;49.736;8.752;2023-03-11T17:18:04;5.25;;;1.48;;
55368;SDS011;41247;49.736;8.752;2023-03-11T17:21:45;3.25;;;1.10;;
55368;SDS011;41247;49.736;8.752;2023-03-11T17:25:26;3.75;;;1.27;;
55368;SDS011;41247;49.736;8.752;2023-03-11T17:29:06;3.35;;;1.13;;
55368;SDS011;41247;49.736;8.752;2023-03-11T17:32:47;6.78;;;1.50;;
55368;SDS011;41247;49.736;8.752;2023-03-11T17:36:28;2.88;;;1.40;;
55368;SDS011;41247;49.736;8.752;2023-03-11T17:40:08;2.78;;;1.30;;
55368;SDS011;41247;49.736;8.752;2023-03-11T17:43:50;3.28;;;1.33;;
55368;SDS011;41247;49.736;8.752;2023-03-11T17:47:31;5.20;;;1.70;;
55368;SDS011;41247;49.736;8.752;2023-03-11T17:51:13;6.53;;;1.45;;
55368;SDS011;41247;49.736;8.752;2023-03-11T17:55:00;7.18;;;1.45;;
55368;SDS011;41247;49.736;8.752;2023-03-11T17:58:41;4.20;;;1.30;;
55368;SDS011;41247;49.736;8.752;2023-03-11T18:02:21;5.50;;;2.10;;
55368;SDS011;41247;49.736;8.752;2023-03-11T18:06:03;3.67;;;1.52;;
55368;SDS011;41247;49.736;8.752;2023-03-11T18:09:45;4.25;;;1.17;;
55368;SDS011;41247;49.736;8.752;2023-03-11T18:13:25;3.35;;;1.40;;
55368;SDS011;41247;49.736;8.752;2023-03-11T18:17:06;7.80;;;2.00;;
55368;SDS011;41247;49.736;8.752;2023-03-11T18:20:47;5.07;;;1.85;;
55368;SDS011;41247;49.736;8.752;2023-03-11T18:24:27;7.57;;;1.80;;
55368;SDS011;41247;49.736;8.752;2023-03-11T18:28:08;3.40;;;1.80;;
55368;SDS011;41247;49.736;8.752;2023-03-11T18:31:48;4.65;;;2.05;;
55368;SDS011;41247;49.736;8.752;2023-03-11T18:35:29;5.53;;;1.77;;
55368;SDS011;41247;49.736;8.752;2023-03-11T18:39:10;4.65;;;1.90;;
55368;SDS011;41247;49.736;8.752;2023-03-11T18:42:51;7.00;;;2.05;;
55368;SDS011;41247;49.736;8.752;2023-03-11T18:46:31;6.68;;;1.80;;
55368;SDS011;41247;49.736;8.752;2023-03-11T18:50:12;10.20;;;2.40;;
55368;SDS011;41247;49.736;8.752;2023-03-11T18:53:53;6.60;;;1.95;;
55368;SDS011;41247;49.736;8.752;2023-03-11T18:57:33;7.78;;;1.77;;
55368;SDS011;41247;49.736;8.752;2023-03-11T19:01:15;4.63;;;1.63;;
55368;SDS011;41247;49.736;8.752;2023-03-11T19:04:58;4.93;;;1.77;;
55368;SDS011;41247;49.736;8.752;2023-03-11T19:08:39;6.18;;;1.80;;
55368;SDS011;41247;49.736;8.752;2023-03-11T19:12:19;7.05;;;1.90;;
55368;SDS011;41247;49.736;8.752;2023-03-11T19:16:00;5.40;;;1.60;;
55368;SDS011;41247;49.736;8.752;2023-03-11T19:19:41;8.45;;;1.80;;
55368;SDS011;41247;49.736;8.752;2023-03-11T19:23:22;6.55;;;1.40;;
55368;SDS011;41247;49.736;8.752;2023-03-11T19:27:02;5.22;;;1.80;;
55368;SDS011;41247;49.736;8.752;2023-03-11T19:30:43;7.25;;;1.55;;
55368;SDS011;41247;49.736;8.752;2023-03-11T19:34:24;2.22;;;1.20;;
55368;SDS011;41247;49.736;8.752;2023-03-11T19:38:04;8.43;;;1.70;;
55368;SDS011;41247;49.736;8.752;2023-03-11T19:41:45;5.63;;;1.70;;
55368;SDS011;41247;49.736;8.752;2023-03-11T19:45:26;4.35;;;1.20;;
55368;SDS011;41247;49.736;8.752;2023-03-11T19:49:08;5.60;;;1.95;;
55368;SDS011;41247;49.736;8.752;2023-03-11T19:52:48;5.47;;;1.63;;
55368;SDS011;41247;49.736;8.752;2023-03-11T19:56:29;4.20;;;1.67;;
55368;SDS011;41247;49.736;8.752;2023-03-11T20:00:10;7.97;;;2.00;;
55368;SDS011;41247;49.736;8.752;2023-03-11T20:03:51;5.97;;;1.40;;
55368;SDS011;41247;49.736;8.752;2023-03-11T20:07:33;6.10;;;1.42;;
55368;SDS011;41247;49.736;8.752;2023-03-11T20:11:14;5.40;;;1.77;;
55368;SDS011;41247;49.736;8.752;2023-03-11T20:14:55;5.55;;;1.35;;
55368;SDS011;41247;49.736;8.752;2023-03-11T20:18:35;5.10;;;1.48;;
55368;SDS011;41247;49.736;8.752;2023-03-11T20:22:16;5.68;;;1.85;;
55368;SDS011;41247;49.736;8.752;2023-03-11T20:25:56;3.75;;;1.30;;
55368;SDS011;41247;49.736;8.752;2023-03-11T20:29:37;6.03;;;1.90;;
55368;SDS011;41247;49.736;8.752;2023-03-11T20:33:18;5.28;;;1.75;;
55368;SDS011;41247;49.736;8.752;2023-03-11T20:36:58;4.95;;;1.90;;
55368;SDS011;41247;49.736;8.752;2023-03-11T20:40:39;6.82;;;1.88;;
55368;SDS011;41247;49.736;8.752;2023-03-11T20:44:19;6.18;;;1.90;;
55368;SDS011;41247;49.736;8.752;2023-03-11T20:48:00;9.98;;;2.15;;
55368;SDS011;41247;49.736;8.752;2023-03-11T20:51:40;5.70;;;1.98;;
55368;SDS011;41247;49.736;8.752;2023-03-11T20:55:21;10.48;;;1.90;;
55368;SDS011;41247;49.736;8.752;2023-03-11T20:59:02;10.25;;;1.60;;
55368;SDS011;41247;49.736;8.752;2023-03-11T21:02:43;4.30;;;1.70;;
55368;SDS011;41247;49.736;8.752;2023-03-11T21:10:15;4.07;;;1.58;;
55368;SDS011;41247;49.736;8.752;2023-03-11T21:13:56;3.30;;;1.98;;
55368;SDS011;41247;49.736;8.752;2023-03-11T21:17:37;9.15;;;2.00;;
55368;SDS011;41247;49.736;8.752;2023-03-11T21:21:17;10.02;;;1.90;;
55368;SDS011;41247;49.736;8.752;2023-03-11T21:24:58;9.95;;;2.08;;
55368;SDS011;41247;49.736;8.752;2023-03-11T21:28:39;8.77;;;2.10;;
55368;SDS011;41247;49.736;8.752;2023-03-11T21:32:21;4.43;;;1.90;;
55368;SDS011;41247;49.736;8.752;2023-03-11T21:36:02;5.68;;;1.80;;
55368;SDS011;41247;49.736;8.752;2023-03-11T21:39:44;7.28;;;1.58;;
55368;SDS011;41247;49.736;8.752;2023-03-11T21:43:25;6.75;;;1.70;;
55368;SDS011;41247;49.736;8.752;2023-03-11T21:47:05;3.63;;;1.83;;
55368;SDS011;41247;49.736;8.752;2023-03-11T21:50:46;4.55;;;1.70;;
55368;SDS011;41247;49.736;8.752;2023-03-11T21:54:27;6.40;;;2.00;;
55368;SDS011;41247;49.736;8.752;2023-03-11T21:58:08;4.65;;;1.60;;
55368;SDS011;41247;49.736;8.752;2023-03-11T22:01:49;4.25;;;1.67;;
55368;SDS011;41247;49.736;8.752;2023-03-11T22:05:29;3.90;;;1.67;;
55368;SDS011;41247;49.736;8.752;2023-03-11T22:09:10;6.57;;;1.85;;
55368;SDS011;41247;49.736;8.752;2023-03-11T22:12:50;6.50;;;1.90;;
55368;SDS011;41247;49.736;8.752;2023-03-11T22:16:31;6.00;;;1.80;;
55368;SDS011;41247;49.736;8.752;2023-03-11T22:20:11;5.93;;;1.40;;
55368;SDS011;41247;49.736;8.752;2023-03-11T22:23:52;2.92;;;1.58;;
55368;SDS011;41247;49.736;8.752;2023-03-11T22:27:33;4.20;;;1.75;;
55368;SDS011;41247;49.736;8.752;2023-03-11T22:31:13;4.10;;;1.45;;
55368;SDS011;41247;49.736;8.752;2023-03-11T22:34:55;4.78;;;1.38;;
55368;SDS011;41247;49.736;8.752;2023-03-11T22:38:35;5.68;;;1.55;;
55368;SDS011;41247;49.736;8.752;2023-03-11T22:42:16;10.60;;;1.70;;
55368;SDS011;41247;49.736;8.752;2023-03-11T22:45:57;5.13;;;1.40;;
55368;SDS011;41247;49.736;8.752;2023-03-11T22:49:38;7.75;;;1.90;;
55368;SDS011;41247;49.736;8.752;2023-03-11T22:53:19;4.13;;;1.42;;
55368;SDS011;41247;49.736;8.752;2023-03-11T22:56:59;4.13;;;1.52;;
55368;SDS011;41247;49.736;8.752;2023-03-11T23:00:42;5.30;;;1.20;;
55368;SDS011;41247;49.736;8.752;2023-03-11T23:04:22;2.97;;;1.45;;
55368;SDS011;41247;49.736;8.752;2023-03-11T23:08:03;11.40;;;1.73;;
55368;SDS011;41247;49.736;8.752;2023-03-11T23:11:44;9.13;;;1.95;;
55368;SDS011;41247;49.736;8.752;2023-03-11T23:15:24;7.50;;;1.70;;
55368;SDS011;41247;49.736;8.752;2023-03-11T23:19:05;7.93;;;1.65;;
55368;SDS011;41247;49.736;8.752;2023-03-11T23:22:46;6.97;;;1.70;;
55368;SDS011;41247;49.736;8.752;2023-03-11T23:26:27;5.93;;;1.67;;
55368;SDS011;41247;49.736;8.752;2023-03-11T23:30:10;3.70;;;1.48;;
55368;SDS011;41247;49.736;8.752;2023-03-11T23:33:54;4.93;;;1.65;;
55368;SDS011;41247;49.736;8.752;2023-03-11T23:37:35;5.78;;;1.70;;
55368;SDS011;41247;49.736;8.752;2023-03-11T23:41:17;4.20;;;1.40;;
55368;SDS011;41247;49.736;8.752;2023-03-11T23:48:40;5.57;;;1.73;;